Time;durP1;ratioP1;P1;durP2;ratioP2;P2;SDS_P1;SDS_P2;PMS_P1;PMS_P2;Temp;Humidity;BMP_temperature;BMP_pressure;BME280_temperature;BME280_humidity;BME280_pressure;Samples;Min_cycle;Max_cycle;Signal;HPM_P1;HPM_P2
2023/02/09 00:00:15;;;;;;;15.65;10.50;;;-1.50;75.60;;;;;;4917941;29;20040;-72
2023/02/09 00:02:46;;;;;;;14.23;9.73;;;-1.60;76.50;;;;;;4933487;23;20050;-72
2023/02/09 00:05:23;;;;;;;14.55;10.27;;;-1.60;76.00;;;;;;4917570;29;20114;-72
2023/02/09 00:08:02;;;;;;;14.68;9.35;;;-1.60;76.50;;;;;;4924574;29;20040;-73
2023/02/09 00:10:33;;;;;;;12.52;10.05;;;-1.50;76.10;;;;;;4917344;29;20040;-72
2023/02/09 00:16:05;;;;;;;18.55;11.80;;;-1.60;75.90;;;;;;4933695;29;20039;-73
2023/02/09 00:18:35;;;;;;;16.08;11.65;;;-1.70;77.60;;;;;;4905660;29;20389;-72
2023/02/09 00:21:06;;;;;;;19.63;12.60;;;-1.60;78.40;;;;;;4901577;29;20475;-72
2023/02/09 00:23:51;;;;;;;19.35;11.57;;;-1.70;79.70;;;;;;4917039;29;20047;-72
2023/02/09 00:26:26;;;;;;;22.00;13.25;;;-2.00;80.50;;;;;;4921582;29;20114;-75
2023/02/09 00:28:57;;;;;;;15.70;10.88;;;-1.90;80.10;;;;;;4902237;29;20396;-75
2023/02/09 00:31:28;;;;;;;17.83;11.15;;;-1.90;80.00;;;;;;4917023;29;20067;-74
2023/02/09 00:33:55;;;;;;;19.63;10.85;;;-1.90;79.40;;;;;;4901717;29;20511;-73
2023/02/09 00:36:22;;;;;;;14.02;10.15;;;-1.80;78.80;;;;;;4933820;29;20044;-77
2023/02/09 00:38:50;;;;;;;13.50;10.80;;;-1.80;78.30;;;;;;4918991;29;20039;-84
2023/02/09 00:41:17;;;;;;;14.35;11.02;;;-1.60;78.20;;;;;;4936529;29;20047;-74
2023/02/09 00:43:44;;;;;;;15.63;10.05;;;-1.80;77.70;;;;;;4936514;29;20047;-76
2023/02/09 00:46:11;;;;;;;16.35;10.25;;;-1.80;78.00;;;;;;4918500;29;20051;-76
2023/02/09 00:48:41;;;;;;;17.20;10.68;;;-1.80;78.70;;;;;;4915916;29;20044;-73
2023/02/09 00:51:08;;;;;;;17.65;10.95;;;-1.80;79.10;;;;;;4909043;29;20385;-72
2023/02/09 00:53:36;;;;;;;18.83;11.85;;;-1.80;80.00;;;;;;4901698;29;20043;-72
2023/02/09 00:56:03;;;;;;;18.75;11.27;;;-1.80;81.00;;;;;;4910482;29;20052;-73
2023/02/09 00:58:31;;;;;;;19.65;11.30;;;-1.80;81.60;;;;;;4905395;29;20059;-74
2023/02/09 01:01:03;;;;;;;20.97;11.37;;;-2.10;82.90;;;;;;4910244;29;20048;-75
2023/02/09 01:03:33;;;;;;;17.42;11.00;;;-2.00;84.00;;;;;;4909859;29;20082;-73
2023/02/09 01:06:00;;;;;;;15.85;11.05;;;-1.90;84.50;;;;;;4915232;29;20051;-78
2023/02/09 01:08:27;;;;;;;14.55;10.48;;;-1.90;85.00;;;;;;4927669;29;20047;-76
2023/02/09 01:10:55;;;;;;;16.33;10.45;;;-2.10;85.50;;;;;;4901666;29;20676;-78
2023/02/09 01:13:22;;;;;;;16.67;11.52;;;-2.10;86.00;;;;;;4916662;29;20511;-80
2023/02/09 01:15:50;;;;;;;17.30;10.80;;;-2.10;86.60;;;;;;4903591;29;20099;-73
2023/02/09 01:18:17;;;;;;;13.90;10.00;;;-2.20;87.00;;;;;;4917839;29;20052;-78
2023/02/09 01:20:45;;;;;;;16.23;12.18;;;-2.30;87.70;;;;;;4916979;29;20047;-74
2023/02/09 01:23:14;;;;;;;15.93;11.32;;;-2.30;88.50;;;;;;4916259;29;20154;-78
2023/02/09 01:25:41;;;;;;;16.27;11.48;;;-2.30;88.40;;;;;;4933442;29;20048;-73
2023/02/09 01:28:08;;;;;;;17.05;11.23;;;-2.40;88.90;;;;;;4901697;29;20046;-72
2023/02/09 01:30:35;;;;;;;14.57;10.45;;;-2.40;89.70;;;;;;4901422;29;20052;-73
2023/02/09 01:33:03;;;;;;;13.77;10.98;;;-2.40;90.40;;;;;;4952176;23;20530;-72
2023/02/09 01:35:30;;;;;;;17.20;11.10;;;-2.30;90.40;;;;;;4939334;28;20038;-80
2023/02/09 01:37:58;;;;;;;19.02;10.35;;;-2.40;90.40;;;;;;4961159;28;20051;-72
2023/02/09 01:40:25;;;;;;;16.77;10.50;;;-2.50;90.80;;;;;;4938313;28;20522;-76
2023/02/09 01:43:06;;;;;;;18.48;10.95;;;-2.50;90.90;;;;;;4953218;28;20129;-74
2023/02/09 01:45:41;;;;;;;18.00;12.07;;;-2.50;91.00;;;;;;4920025;29;20086;-79
2023/02/09 01:48:09;;;;;;;20.10;11.25;;;-2.60;91.20;;;;;;4952969;28;20122;-79
2023/02/09 01:50:41;;;;;;;15.63;11.18;;;-2.90;91.80;;;;;;4929595;29;20464;-78
2023/02/09 01:53:17;;;;;;;16.45;11.07;;;-2.70;92.40;;;;;;4948629;28;20053;-74
2023/02/09 01:55:53;;;;;;;20.23;11.95;;;-2.50;92.10;;;;;;4923743;29;20047;-77
2023/02/09 01:58:21;;;;;;;19.23;11.23;;;-2.80;92.50;;;;;;4938504;29;20039;-72
2023/02/09 02:00:54;;;;;;;18.00;11.27;;;-2.70;92.80;;;;;;4922045;28;20058;-72
2023/02/09 02:03:24;;;;;;;16.42;12.00;;;-2.90;93.20;;;;;;4931981;29;20149;-82
2023/02/09 02:05:58;;;;;;;18.30;11.25;;;-2.80;93.70;;;;;;4948221;29;20054;-72
2023/02/09 02:08:43;;;;;;;25.45;11.35;;;-2.80;93.80;;;;;;4939616;29;20387;-73
2023/02/09 02:11:15;;;;;;;18.25;12.23;;;-2.70;93.90;;;;;;4941444;29;20054;-74
2023/02/09 02:13:45;;;;;;;22.95;12.57;;;-2.70;94.30;;;;;;4922683;29;20042;-73
2023/02/09 02:16:53;;;;;;;25.45;11.90;;;-2.60;94.20;;;;;;4920219;29;20059;-79
2023/02/09 02:19:46;;;;;;;24.35;12.48;;;-2.70;94.90;;;;;;4892170;28;20102;-77
2023/02/09 02:22:41;;;;;;;25.77;12.63;;;-2.70;95.30;;;;;;4942909;29;20495;-73
2023/02/09 02:25:47;;;;;;;18.30;11.25;;;-2.90;96.40;;;;;;4920124;29;20066;-73
2023/02/09 02:28:33;;;;;;;19.15;11.85;;;-2.90;97.30;;;;;;4922817;29;20484;-73
2023/02/09 02:31:22;;;;;;;17.27;10.45;;;-2.90;97.30;;;;;;4922950;29;20062;-73
2023/02/09 02:34:19;;;;;;;14.47;10.00;;;-3.20;98.40;;;;;;4912499;29;20760;-76
2023/02/09 02:37:15;;;;;;;15.35;9.75;;;-3.20;99.30;;;;;;4930867;29;20418;-79
2023/02/09 02:39:48;;;;;;;15.10;9.00;;;-3.00;99.60;;;;;;4937337;29;20055;-74
2023/02/09 02:45:38;;;;;;;14.10;9.45;;;-3.10;99.90;;;;;;4938324;29;20051;-73
2023/02/09 02:48:36;;;;;;;10.48;8.45;;;-3.00;99.90;;;;;;4938927;29;20035;-79
2023/02/09 02:51:13;;;;;;;15.10;9.30;;;-3.00;99.90;;;;;;4912248;29;20399;-78
2023/02/09 02:53:47;;;;;;;13.40;8.73;;;-3.00;99.90;;;;;;4954909;29;20412;-72
2023/02/09 02:56:22;;;;;;;12.73;9.20;;;-3.00;99.90;;;;;;4922393;29;20059;-76
2023/02/09 02:59:02;;;;;;;13.75;9.52;;;-3.00;99.90;;;;;;4923395;29;20047;-70
2023/02/09 03:01:38;;;;;;;15.65;8.65;;;-3.00;99.90;;;;;;4922378;29;20412;-70
2023/02/09 03:04:09;;;;;;;13.35;8.82;;;-3.10;99.90;;;;;;4922011;29;20055;-71
2023/02/09 03:06:39;;;;;;;13.68;9.35;;;-3.20;99.90;;;;;;4921836;28;20373;-73
2023/02/09 03:09:17;;;;;;;12.95;9.82;;;-3.40;99.90;;;;;;4953996;29;20047;-72
2023/02/09 03:11:50;;;;;;;12.50;8.57;;;-3.60;99.90;;;;;;4918381;29;20050;-77
2023/02/09 03:14:33;;;;;;;20.42;10.13;;;-3.50;99.90;;;;;;4918970;29;20054;-79
2023/02/09 03:17:17;;;;;;;14.63;10.00;;;-3.50;99.90;;;;;;4937333;29;20051;-74
2023/02/09 03:19:47;;;;;;;11.70;8.35;;;-3.40;99.90;;;;;;4926211;29;20406;-74
2023/02/09 03:22:27;;;;;;;14.52;8.45;;;-3.40;99.90;;;;;;4956368;29;20480;-79
2023/02/09 03:25:06;;;;;;;16.85;10.23;;;-3.40;99.90;;;;;;4954807;29;20047;-74
2023/02/09 03:27:58;;;;;;;13.07;9.20;;;-3.40;99.90;;;;;;4934900;29;20058;-71
2023/02/09 03:30:26;;;;;;;17.38;9.40;;;-3.40;99.90;;;;;;4908179;29;20043;-78
2023/02/09 03:32:55;;;;;;;18.35;10.32;;;-3.70;99.90;;;;;;4954581;29;20138;-80
2023/02/09 03:35:30;;;;;;;14.00;9.63;;;-3.90;99.90;;;;;;4923156;29;20135;-79
2023/02/09 03:37:57;;;;;;;12.07;8.98;;;-3.90;99.90;;;;;;4955935;29;20047;-79
2023/02/09 03:40:24;;;;;;;13.05;10.27;;;-3.90;99.90;;;;;;4936429;29;20514;-79
2023/02/09 03:42:51;;;;;;;13.48;10.18;;;-3.70;99.90;;;;;;4954064;29;20046;-78
2023/02/09 03:45:18;;;;;;;11.35;8.88;;;-3.70;99.90;;;;;;4954871;29;20032;-77
2023/02/09 03:47:46;;;;;;;10.35;8.85;;;-3.70;99.90;;;;;;4954333;29;20039;-75
2023/02/09 03:50:13;;;;;;;13.38;9.07;;;-3.70;99.90;;;;;;4936893;29;20042;-79
2023/02/09 03:52:40;;;;;;;13.52;8.82;;;-3.90;99.90;;;;;;4954601;29;20483;-74
2023/02/09 03:55:08;;;;;;;12.77;8.93;;;-3.80;99.90;;;;;;4953888;29;20040;-78
2023/02/09 03:57:35;;;;;;;12.65;8.73;;;-3.90;99.90;;;;;;4954340;29;20070;-79
2023/02/09 04:00:03;;;;;;;11.63;8.82;;;-3.90;99.90;;;;;;4953182;29;20043;-80
2023/02/09 04:02:32;;;;;;;12.05;8.82;;;-4.00;99.90;;;;;;4934722;29;20039;-73
2023/02/09 04:05:02;;;;;;;14.18;9.32;;;-3.90;99.90;;;;;;4928930;29;20074;-72
2023/02/09 04:07:32;;;;;;;14.95;10.27;;;-3.90;99.90;;;;;;4954370;29;20042;-77
2023/02/09 04:09:59;;;;;;;14.05;9.40;;;-3.80;99.90;;;;;;4936182;29;20047;-78
2023/02/09 04:12:26;;;;;;;14.27;9.23;;;-3.80;99.90;;;;;;4954749;29;20035;-80
2023/02/09 04:14:53;;;;;;;12.05;9.73;;;-3.70;99.90;;;;;;4946962;28;20038;-79
2023/02/09 04:17:21;;;;;;;16.63;9.73;;;-3.70;99.90;;;;;;4950344;29;20035;-78
2023/02/09 04:19:48;;;;;;;15.63;10.35;;;-3.90;99.90;;;;;;4953627;28;20365;-80
2023/02/09 04:22:15;;;;;;;14.00;10.43;;;-3.90;99.90;;;;;;4937435;29;20062;-78
2023/02/09 04:24:42;;;;;;;15.50;11.77;;;-4.00;99.90;;;;;;4953107;29;20053;-79
2023/02/09 04:27:10;;;;;;;20.85;13.05;;;-3.80;99.90;;;;;;4921537;29;20109;-73
2023/02/09 04:29:37;;;;;;;18.88;12.68;;;-3.70;99.90;;;;;;4918927;29;20403;-77
2023/02/09 04:32:04;;;;;;;26.90;13.07;;;-3.70;99.90;;;;;;4953594;29;20575;-79
2023/02/09 04:34:35;;;;;;;19.08;11.35;;;-3.90;99.90;;;;;;4952908;29;20118;-73
2023/02/09 04:37:02;;;;;;;24.67;13.70;;;-3.90;99.90;;;;;;4934705;29;20055;-78
2023/02/09 04:39:29;;;;;;;21.15;12.88;;;-3.80;99.90;;;;;;4953210;29;20055;-78
2023/02/09 04:41:57;;;;;;;19.08;11.82;;;-3.70;99.90;;;;;;4954718;29;20040;-80
2023/02/09 04:44:24;;;;;;;26.85;13.18;;;-3.80;99.90;;;;;;4953904;29;20348;-74
2023/02/09 04:46:54;;;;;;;20.80;13.00;;;-3.80;99.90;;;;;;4921072;29;20054;-81
2023/02/09 04:49:22;;;;;;;18.73;12.35;;;-3.80;99.90;;;;;;4954217;29;20047;-75
2023/02/09 04:51:49;;;;;;;22.02;11.73;;;-3.90;99.90;;;;;;4925186;29;20054;-81
2023/02/09 04:54:16;;;;;;;22.77;13.57;;;-4.00;99.90;;;;;;4954290;29;20047;-79
2023/02/09 04:56:43;;;;;;;25.52;12.73;;;-3.90;99.90;;;;;;4953614;29;20058;-81
2023/02/09 05:01:58;;;;;;;18.58;13.25;;;-3.70;99.90;;;;;;4931615;29;20055;-73
2023/02/09 05:04:25;;;;;;;20.40;13.35;;;-3.80;99.90;;;;;;4904508;29;20048;-74
2023/02/09 05:06:52;;;;;;;17.98;11.55;;;-4.00;99.90;;;;;;4919307;29;20051;-76
2023/02/09 05:09:20;;;;;;;18.90;13.07;;;-4.30;99.90;;;;;;4919543;29;20124;-79
2023/02/09 05:11:47;;;;;;;26.15;12.60;;;-4.10;99.90;;;;;;4953054;29;20392;-71
2023/02/09 05:14:14;;;;;;;22.70;13.05;;;-4.00;99.90;;;;;;4932054;23;20147;-80
2023/02/09 05:16:42;;;;;;;18.50;11.98;;;-3.80;99.90;;;;;;4972774;28;20392;-81
2023/02/09 05:19:27;;;;;;;17.73;12.20;;;-3.80;99.90;;;;;;4946808;28;20387;-74
2023/02/09 05:22:00;;;;;;;18.98;11.07;;;-3.90;99.90;;;;;;4921773;29;20137;-79
2023/02/09 05:24:28;;;;;;;18.45;12.05;;;-4.00;99.90;;;;;;4947019;28;20043;-79
2023/02/09 05:26:55;;;;;;;18.73;13.02;;;-4.00;99.90;;;;;;4944449;28;20036;-79
2023/02/09 05:29:22;;;;;;;17.33;11.95;;;-4.10;99.90;;;;;;4936509;28;20043;-77
2023/02/09 05:31:50;;;;;;;17.48;12.25;;;-4.30;99.90;;;;;;4954596;28;20498;-80
2023/02/09 05:34:17;;;;;;;17.58;12.20;;;-4.20;99.90;;;;;;4952360;28;20079;-81
2023/02/09 05:36:44;;;;;;;23.52;14.15;;;-4.10;99.90;;;;;;4962677;28;20043;-74
2023/02/09 05:39:12;;;;;;;31.92;19.40;;;-4.00;99.90;;;;;;4946881;28;20035;-79
2023/02/09 05:44:29;;;;;;;17.88;11.85;;;-4.20;99.90;;;;;;4931446;29;20122;-72
2023/02/09 05:47:19;;;;;;;18.40;12.35;;;-4.30;99.90;;;;;;4949060;28;20047;-74
2023/02/09 05:49:59;;;;;;;17.00;11.85;;;-4.20;99.90;;;;;;4952571;28;20122;-75
2023/02/09 05:52:26;;;;;;;18.85;12.70;;;-4.10;99.90;;;;;;4931926;28;20047;-71
2023/02/09 05:54:53;;;;;;;24.75;12.80;;;-4.40;99.90;;;;;;4939203;29;20046;-72
2023/02/09 05:57:30;;;;;;;22.20;13.25;;;-4.30;99.90;;;;;;4955185;28;20051;-71
2023/02/09 06:00:08;;;;;;;21.20;13.57;;;-4.40;99.90;;;;;;4932986;28;20051;-72
2023/02/09 06:02:35;;;;;;;21.02;13.45;;;-4.40;99.90;;;;;;4926768;28;20027;-80
2023/02/09 06:05:03;;;;;;;20.45;13.55;;;-4.70;99.90;;;;;;4940641;28;20090;-78
2023/02/09 06:07:33;;;;;;;21.73;12.65;;;-4.50;99.90;;;;;;4941494;28;20038;-72
2023/02/09 06:10:07;;;;;;;27.88;14.02;;;-4.20;99.90;;;;;;4931985;29;20067;-73
2023/02/09 06:12:39;;;;;;;18.77;12.93;;;-4.00;99.90;;;;;;4934341;28;20479;-82
2023/02/09 06:15:09;;;;;;;22.98;12.93;;;-3.90;99.90;;;;;;4945328;28;20502;-72
2023/02/09 06:17:36;;;;;;;19.35;13.40;;;-3.80;99.90;;;;;;4936907;29;20480;-73
2023/02/09 06:20:05;;;;;;;29.27;15.98;;;-3.90;99.90;;;;;;4918444;28;20495;-76
2023/02/09 06:22:37;;;;;;;45.70;25.23;;;-3.80;99.90;;;;;;4924520;29;20462;-70
2023/02/09 06:25:07;;;;;;;;;;;-3.50;99.90;;;;;;4917641;28;20082;-72
2023/02/09 06:27:35;;;;;;;22.88;12.57;;;-3.80;99.90;;;;;;4924585;29;19928;-72
2023/02/09 06:30:04;;;;;;;20.77;14.50;;;-3.80;99.90;;;;;;4934226;28;20054;-81
2023/02/09 06:32:34;;;;;;;24.02;13.70;;;-3.70;99.90;;;;;;4940766;29;20074;-71
2023/02/09 06:35:03;;;;;;;20.45;14.13;;;-4.00;99.90;;;;;;4935729;28;20310;-71
2023/02/09 06:37:32;;;;;;;23.92;14.35;;;-4.30;99.90;;;;;;4925893;29;20040;-83
2023/02/09 06:40:04;;;;;;;23.23;13.60;;;-4.30;99.90;;;;;;4939128;28;20044;-73
2023/02/09 06:42:44;;;;;;;20.45;12.73;;;-4.40;99.90;;;;;;4920286;29;20035;-82
2023/02/09 06:45:20;;;;;;;19.98;13.40;;;-4.40;99.90;;;;;;4921018;28;20051;-72
2023/02/09 06:47:48;;;;;;;18.13;12.20;;;-4.20;99.90;;;;;;4922141;29;20082;-73
2023/02/09 06:50:19;;;;;;;17.40;12.52;;;-3.90;99.90;;;;;;4935519;28;20061;-72
2023/02/09 06:52:53;;;;;;;110.43;51.08;;;-3.60;99.90;;;;;;4929818;29;20047;-73
2023/02/09 06:55:20;;;;;;;238.00;108.30;;;-3.20;99.90;;;;;;4910479;28;20047;-72
2023/02/09 06:57:52;;;;;;;105.43;51.33;;;-3.10;99.90;;;;;;4934226;29;20032;-83
2023/02/09 07:00:20;;;;;;;47.58;25.48;;;-3.00;99.90;;;;;;4934383;28;20054;-75
2023/02/09 07:02:48;;;;;;;27.73;16.13;;;-2.80;99.90;;;;;;4939541;29;20043;-79
2023/02/09 07:05:16;;;;;;;21.60;13.70;;;-3.10;99.90;;;;;;4953326;28;20040;-80
2023/02/09 07:07:44;;;;;;;24.25;15.32;;;-3.00;99.90;;;;;;4942143;28;20043;-73
2023/02/09 07:10:15;;;;;;;23.20;14.88;;;-2.80;99.90;;;;;;4897360;28;20115;-82
2023/02/09 07:12:43;;;;;;;24.45;13.15;;;-2.90;99.90;;;;;;4939460;28;20059;-76
2023/02/09 07:15:16;;;;;;;26.15;13.55;;;-2.80;99.90;;;;;;4915617;28;20078;-71
2023/02/09 07:17:45;;;;;;;19.27;11.82;;;-2.80;99.90;;;;;;4913220;29;20067;-76
2023/02/09 07:20:12;;;;;;;23.15;12.85;;;-2.70;99.90;;;;;;4945371;28;20036;-80
2023/02/09 07:22:40;;;;;;;20.58;12.70;;;-2.50;99.90;;;;;;4936885;29;20065;-81
2023/02/09 07:25:07;;;;;;;22.48;13.60;;;-2.40;99.90;;;;;;4962374;28;20043;-80
2023/02/09 07:27:38;;;;;;;24.40;14.82;;;-2.40;99.50;;;;;;4924303;29;20048;-75
2023/02/09 07:30:08;;;;;;;18.50;13.23;;;-2.30;99.00;;;;;;4928922;28;20055;-73
2023/02/09 07:32:38;;;;;;;17.48;12.90;;;-2.30;99.10;;;;;;4958986;23;20404;-71
2023/02/09 07:35:05;;;;;;;24.05;14.90;;;-2.50;98.70;;;;;;4940223;29;20047;-73
2023/02/09 07:37:34;;;;;;;19.73;13.25;;;-2.20;98.70;;;;;;4942876;29;20075;-80
2023/02/09 07:40:02;;;;;;;23.80;13.40;;;-2.00;98.10;;;;;;4957909;29;20039;-76
2023/02/09 07:42:29;;;;;;;23.02;13.85;;;-1.80;97.30;;;;;;4955519;29;20083;-82
2023/02/09 07:44:59;;;;;;;22.07;14.63;;;-1.80;96.90;;;;;;4938856;29;20044;-76
2023/02/09 07:47:26;;;;;;;23.73;15.32;;;-1.90;96.90;;;;;;4955558;29;20697;-76
2023/02/09 07:49:53;;;;;;;31.42;17.13;;;-1.80;97.50;;;;;;4954497;29;20051;-77
2023/02/09 07:52:21;;;;;;;43.65;20.33;;;-1.80;98.40;;;;;;4923152;29;20057;-79
2023/02/09 07:54:49;;;;;;;42.03;23.30;;;-1.70;98.60;;;;;;4959760;23;20055;-79
2023/02/09 07:57:17;;;;;;;44.83;22.38;;;-1.80;98.80;;;;;;4921755;29;20039;-77
2023/02/09 07:59:47;;;;;;;47.85;23.05;;;-1.60;99.10;;;;;;4924984;29;20032;-83
2023/02/09 08:02:26;;;;;;;40.63;22.75;;;-1.80;99.30;;;;;;4920103;29;20145;-71
2023/02/09 08:04:58;;;;;;;42.10;22.92;;;-1.80;99.10;;;;;;4935636;29;20043;-75
2023/02/09 08:07:27;;;;;;;38.95;21.75;;;-1.60;99.40;;;;;;4919840;29;20044;-81
2023/02/09 08:09:55;;;;;;;33.88;20.35;;;-1.50;99.10;;;;;;4939690;29;20048;-81
2023/02/09 08:13:13;;;;;;;32.03;19.10;;;-1.50;98.50;;;;;;4922753;29;20043;-81
2023/02/09 08:15:17;;;;;;;25.40;16.85;;;-1.40;97.80;;;;;;4906388;29;20063;-73
2023/02/09 08:17:50;;;;;;;30.83;18.35;;;-1.30;97.40;;;;;;4930210;29;20115;-78
2023/02/09 08:20:22;;;;;;;40.30;20.92;;;-1.10;97.00;;;;;;4938995;29;20046;-74
2023/02/09 08:23:05;;;;;;;79.43;36.78;;;-1.20;97.40;;;;;;4934319;29;20055;-82
2023/02/09 08:25:36;;;;;;;30.70;18.77;;;-1.00;98.50;;;;;;4907111;29;20047;-72
2023/02/09 08:28:08;;;;;;;28.45;16.50;;;-1.00;96.30;;;;;;4889164;29;20387;-73
2023/02/09 08:30:35;;;;;;;25.15;16.30;;;-0.90;96.40;;;;;;4900720;29;20044;-77
2023/02/09 08:33:03;;;;;;;25.83;16.40;;;-0.50;95.70;;;;;;4911957;29;20515;-72
2023/02/09 08:35:33;;;;;;;25.38;16.10;;;-0.60;94.90;;;;;;4937711;29;20034;-72
2023/02/09 08:38:02;;;;;;;;;;;-0.80;94.80;;;;;;4919745;29;20066;-72
2023/02/09 08:40:30;;;;;;;24.90;14.88;;;-0.80;94.60;;;;;;4934659;29;20228;-71
2023/02/09 08:42:57;;;;;;;27.30;14.70;;;-1.00;94.90;;;;;;4918946;29;20393;-71
2023/02/09 08:45:25;;;;;;;24.40;15.38;;;-0.90;94.50;;;;;;4888671;29;20048;-72
2023/02/09 08:47:52;;;;;;;26.90;16.13;;;-0.70;93.90;;;;;;4889514;29;20481;-72
2023/02/09 08:50:19;;;;;;;32.35;17.52;;;-0.60;93.80;;;;;;4937561;29;20047;-71
2023/02/09 08:52:54;;;;;;;29.60;17.02;;;-0.50;94.40;;;;;;4892532;29;20051;-72
2023/02/09 08:55:37;;;;;;;38.78;18.33;;;-0.20;94.00;;;;;;4904872;29;20143;-73
2023/02/09 08:58:07;;;;;;;30.13;17.43;;;-0.10;93.40;;;;;;4887148;29;20067;-70
2023/02/09 09:00:48;;;;;;;31.38;17.80;;;0.10;92.70;;;;;;4878185;29;20310;-72
2023/02/09 09:03:20;;;;;;;36.92;18.58;;;0.30;92.40;;;;;;4898116;29;20040;-72
2023/02/09 09:05:47;;;;;;;35.97;21.55;;;0.50;92.50;;;;;;4897432;29;20086;-72
2023/02/09 09:08:15;;;;;;;34.42;20.33;;;0.70;93.50;;;;;;4917050;29;20114;-72
2023/02/09 09:10:42;;;;;;;30.90;18.10;;;0.70;92.90;;;;;;4900891;29;20060;-83
2023/02/09 09:13:09;;;;;;;33.00;17.50;;;0.80;91.80;;;;;;4919210;29;20044;-78
2023/02/09 09:15:41;;;;;;;27.80;17.90;;;0.80;91.30;;;;;;4965982;23;20051;-84
2023/02/09 09:18:10;;;;;;;32.60;18.13;;;1.00;90.80;;;;;;4959442;28;20103;-72
2023/02/09 09:20:41;;;;;;;27.88;16.90;;;0.90;90.60;;;;;;4916375;23;20054;-83
2023/02/09 09:23:09;;;;;;;30.45;19.95;;;0.90;91.30;;;;;;4938187;29;20058;-72
2023/02/09 09:25:38;;;;;;;28.10;17.08;;;1.40;91.00;;;;;;4920619;29;20547;-71
2023/02/09 09:28:06;;;;;;;23.80;15.55;;;1.30;87.80;;;;;;4900540;29;20047;-71
2023/02/09 09:30:34;;;;;;;26.50;16.83;;;1.30;85.80;;;;;;4907138;29;20391;-72
2023/02/09 09:33:03;;;;;;;30.70;16.33;;;1.40;85.80;;;;;;4932199;29;20036;-74
2023/02/09 09:35:31;;;;;;;30.25;17.40;;;1.30;86.70;;;;;;4939300;29;20044;-71
2023/02/09 09:38:00;;;;;;;23.70;16.00;;;1.50;86.30;;;;;;4917335;29;20059;-71
2023/02/09 09:40:31;;;;;;;31.02;16.95;;;1.70;84.60;;;;;;4918590;29;20036;-81
2023/02/09 09:43:06;;;;;;;24.08;14.88;;;1.90;83.10;;;;;;4918933;29;20131;-71
2023/02/09 09:45:37;;;;;;;25.50;15.00;;;2.30;82.30;;;;;;4937343;29;20044;-79
2023/02/09 09:48:23;;;;;;;24.20;14.40;;;2.40;79.90;;;;;;4936824;29;20050;-71
2023/02/09 09:51:00;;;;;;;22.70;14.43;;;2.30;79.30;;;;;;4919811;29;20032;-74
2023/02/09 09:53:35;;;;;;;23.42;14.15;;;2.50;76.60;;;;;;4924859;29;20048;-80
2023/02/09 09:56:06;;;;;;;21.27;13.52;;;2.50;77.00;;;;;;4954576;23;20051;-72
2023/02/09 09:58:36;;;;;;;20.00;13.65;;;2.50;75.00;;;;;;4924007;29;20064;-71
2023/02/09 10:01:14;;;;;;;20.00;13.48;;;2.70;74.20;;;;;;4940043;29;20043;-80
2023/02/09 10:03:42;;;;;;;18.90;11.93;;;3.20;74.10;;;;;;4956463;29;20047;-74
2023/02/09 10:06:17;;;;;;;15.55;11.15;;;3.20;71.20;;;;;;4955342;29;20046;-72
2023/02/09 10:09:03;;;;;;;15.65;10.65;;;3.10;72.00;;;;;;4922771;29;20067;-73
2023/02/09 10:11:42;;;;;;;16.35;10.88;;;3.40;70.00;;;;;;4933190;29;20448;-83
2023/02/09 10:14:09;;;;;;;19.70;11.32;;;3.30;69.10;;;;;;4899052;29;20054;-71
2023/02/09 10:16:37;;;;;;;20.23;13.50;;;3.20;69.30;;;;;;4932200;29;20440;-71
2023/02/09 10:19:16;;;;;;;22.08;14.00;;;3.20;71.50;;;;;;4915961;29;20055;-71
2023/02/09 10:21:44;;;;;;;18.33;13.55;;;3.60;71.80;;;;;;4933881;29;20440;-73
2023/02/09 10:24:31;;;;;;;20.20;13.98;;;4.10;70.50;;;;;;4934763;29;20044;-71
2023/02/09 10:27:44;;;;;;;19.13;13.15;;;4.00;72.20;;;;;;4930484;29;20058;-72
2023/02/09 10:30:25;;;;;;;21.02;12.25;;;4.10;68.40;;;;;;4939888;29;20040;-75
2023/02/09 10:32:58;;;;;;;20.02;12.43;;;4.00;67.70;;;;;;4935892;29;20071;-85
2023/02/09 10:35:32;;;;;;;15.80;11.27;;;3.60;68.60;;;;;;4919368;29;20047;-74
2023/02/09 10:38:02;;;;;;;20.02;11.80;;;4.00;67.20;;;;;;4934115;29;20056;-81
2023/02/09 10:40:33;;;;;;;15.35;10.57;;;4.50;66.30;;;;;;4948342;29;20048;-70
2023/02/09 10:43:27;;;;;;;15.40;11.32;;;4.10;64.40;;;;;;4932485;29;20063;-72
2023/02/09 10:46:01;;;;;;;21.23;10.13;;;3.90;65.60;;;;;;4933555;29;20056;-81
2023/02/09 10:48:40;;;;;;;14.50;9.82;;;4.20;63.70;;;;;;4909972;29;20048;-74
2023/02/09 10:51:14;;;;;;;15.35;10.07;;;4.50;62.90;;;;;;4941171;29;20055;-76
2023/02/09 10:54:05;;;;;;;18.25;10.25;;;4.60;62.00;;;;;;4942402;29;20036;-76
2023/02/09 10:56:47;;;;;;;18.52;12.43;;;4.70;62.50;;;;;;4938624;29;20130;-73
2023/02/09 10:59:21;;;;;;;14.50;10.30;;;5.40;63.60;;;;;;4937603;29;20143;-83
2023/02/09 11:02:01;;;;;;;12.52;9.23;;;4.90;61.70;;;;;;4946801;29;20098;-72
2023/02/09 11:04:37;;;;;;;13.65;10.35;;;5.10;60.20;;;;;;4920041;29;20562;-72
2023/02/09 11:07:16;;;;;;;15.85;9.63;;;5.10;60.20;;;;;;4905734;29;20368;-80
2023/02/09 11:09:51;;;;;;;13.32;9.35;;;5.00;61.00;;;;;;4938607;29;20138;-85
2023/02/09 11:12:22;;;;;;;;;;;5.40;59.30;;;;;;4939197;29;20055;-85
2023/02/09 11:14:51;;;;;;;12.20;8.95;;;6.10;57.90;;;;;;4927525;29;20029;-81
2023/02/09 11:17:43;;;;;;;13.10;9.03;;;6.40;56.80;;;;;;4919934;29;20138;-75
2023/02/09 11:20:22;;;;;;;13.77;9.43;;;7.90;53.70;;;;;;4917296;29;20107;-78
2023/02/09 11:23:03;;;;;;;13.93;10.10;;;9.00;50.90;;;;;;4924254;29;20136;-85
2023/02/09 11:25:51;;;;;;;12.88;9.50;;;9.00;50.90;;;;;;4929074;29;20043;-78
2023/02/09 11:28:46;;;;;;;17.55;11.25;;;10.50;48.40;;;;;;4938166;29;20055;-74
2023/02/09 11:31:38;;;;;;;15.90;10.65;;;10.40;49.10;;;;;;4936950;29;20062;-73
2023/02/09 11:34:54;;;;;;;14.85;9.82;;;10.30;48.50;;;;;;4920700;29;20055;-78
2023/02/09 11:37:36;;;;;;;16.88;9.40;;;10.50;48.40;;;;;;4916976;29;20043;-78
2023/02/09 11:40:18;;;;;;;14.32;9.40;;;9.70;49.00;;;;;;4920186;29;20055;-82
2023/02/09 11:43:13;;;;;;;16.30;10.00;;;7.60;52.10;;;;;;4938060;29;20043;-73
2023/02/09 11:45:49;;;;;;;14.18;8.88;;;6.60;54.90;;;;;;4927801;29;20384;-72
2023/02/09 11:48:44;;;;;;;11.93;8.90;;;7.00;54.60;;;;;;4939313;29;20143;-82
2023/02/09 11:51:21;;;;;;;13.25;9.05;;;7.40;53.60;;;;;;4939164;29;20043;-74
2023/02/09 11:53:57;;;;;;;12.73;8.80;;;7.50;53.50;;;;;;4922440;29;20055;-80
2023/02/09 11:56:26;;;;;;;13.18;9.50;;;7.30;53.90;;;;;;4940421;29;20111;-74
2023/02/09 11:59:08;;;;;;;13.43;9.00;;;7.00;54.50;;;;;;4923143;29;20162;-77
2023/02/09 12:01:48;;;;;;;12.02;9.18;;;6.40;54.50;;;;;;4921348;29;20040;-73
2023/02/09 12:04:25;;;;;;;12.52;8.55;;;7.00;54.60;;;;;;4921781;29;20110;-86
2023/02/09 12:06:58;;;;;;;12.45;9.00;;;7.70;53.30;;;;;;4938478;29;20055;-86
2023/02/09 12:09:44;;;;;;;12.95;8.07;;;7.40;53.40;;;;;;4937370;29;20055;-72
2023/02/09 12:12:30;;;;;;;10.38;7.72;;;7.30;53.10;;;;;;4938169;29;20044;-73
2023/02/09 12:15:46;;;;;;;11.90;7.78;;;7.40;52.90;;;;;;4942591;29;20388;-72
2023/02/09 12:18:27;;;;;;;11.95;8.50;;;7.70;52.50;;;;;;4936169;29;20477;-84
2023/02/09 12:21:00;;;;;;;12.80;7.93;;;9.10;51.50;;;;;;4939782;29;20489;-83
2023/02/09 12:23:34;;;;;;;13.13;8.48;;;9.90;47.90;;;;;;4938864;29;20067;-78
2023/02/09 12:26:11;;;;;;;11.63;7.70;;;10.40;47.80;;;;;;4936123;29;20465;-73
2023/02/09 12:28:46;;;;;;;10.77;7.88;;;12.30;45.10;;;;;;4927913;29;20058;-73
2023/02/09 12:31:23;;;;;;;10.32;7.10;;;13.80;43.10;;;;;;4936279;29;20082;-74
2023/02/09 12:33:56;;;;;;;11.18;7.57;;;13.20;42.80;;;;;;4935331;29;20126;-73
2023/02/09 12:36:34;;;;;;;13.18;8.00;;;12.80;43.30;;;;;;4935987;29;20040;-75
2023/02/09 12:39:32;;;;;;;12.20;8.27;;;13.30;42.60;;;;;;4931349;29;20131;-82
2023/02/09 12:42:02;;;;;;;12.63;8.30;;;13.70;41.80;;;;;;4915316;29;20051;-74
2023/02/09 12:44:30;;;;;;;11.57;7.75;;;13.90;41.70;;;;;;4935908;29;20047;-87
2023/02/09 12:46:57;;;;;;;12.73;8.23;;;14.30;41.20;;;;;;4937441;29;20048;-75
2023/02/09 12:49:27;;;;;;;10.75;7.38;;;14.70;40.80;;;;;;4936557;29;20201;-80
2023/02/09 12:52:12;;;;;;;11.18;8.07;;;13.70;41.60;;;;;;4929671;29;20040;-72
2023/02/09 12:55:16;;;;;;;11.02;6.80;;;13.80;41.30;;;;;;4931971;23;20052;-83
2023/02/09 12:57:50;;;;;;;10.15;6.90;;;13.40;41.20;;;;;;4955816;29;20036;-77
2023/02/09 13:00:18;;;;;;;11.05;7.80;;;13.50;41.50;;;;;;4928439;29;20110;-83
2023/02/09 13:02:48;;;;;;;9.68;6.63;;;13.20;41.80;;;;;;4941527;29;20062;-74
2023/02/09 13:05:23;;;;;;;10.80;7.43;;;13.70;41.40;;;;;;4946573;29;20495;-82
2023/02/09 13:08:17;;;;;;;9.65;7.18;;;15.40;40.00;;;;;;4924653;29;20061;-80
2023/02/09 13:11:17;;;;;;;10.35;7.43;;;15.50;40.40;;;;;;4955141;29;20586;-75
2023/02/09 13:14:06;;;;;;;10.55;7.45;;;15.50;40.30;;;;;;4942361;29;20158;-72
2023/02/09 13:17:08;;;;;;;9.77;7.00;;;15.90;39.10;;;;;;4937296;29;20482;-73